sensor_id;sensor_type;location;lat;lon;timestamp;P1;durP1;ratioP1;P2;durP2;ratioP2
74593;SDS011;63097;51.872;4.460;2023-04-28T00:00:23;10.68;;;5.82;;
74593;SDS011;63097;51.872;4.460;2023-04-28T00:02:48;9.20;;;5.68;;
74593;SDS011;63097;51.872;4.460;2023-04-28T00:05:14;7.82;;;5.50;;
74593;SDS011;63097;51.872;4.460;2023-04-28T00:07:39;13.82;;;5.97;;
74593;SDS011;63097;51.872;4.460;2023-04-28T00:10:04;12.15;;;6.50;;
74593;SDS011;63097;51.872;4.460;2023-04-28T00:12:30;11.35;;;6.22;;
74593;SDS011;63097;51.872;4.460;2023-04-28T00:14:56;12.52;;;5.63;;
74593;SDS011;63097;51.872;4.460;2023-04-28T00:17:21;12.38;;;6.45;;
74593;SDS011;63097;51.872;4.460;2023-04-28T00:19:46;10.00;;;5.65;;
74593;SDS011;63097;51.872;4.460;2023-04-28T00:22:12;18.45;;;6.40;;
74593;SDS011;63097;51.872;4.460;2023-04-28T00:24:37;8.60;;;5.57;;
74593;SDS011;63097;51.872;4.460;2023-04-28T00:27:02;9.05;;;6.07;;
74593;SDS011;63097;51.872;4.460;2023-04-28T00:29:28;11.43;;;6.10;;
74593;SDS011;63097;51.872;4.460;2023-04-28T00:31:53;12.02;;;5.07;;
74593;SDS011;63097;51.872;4.460;2023-04-28T00:34:19;8.32;;;5.40;;
74593;SDS011;63097;51.872;4.460;2023-04-28T00:36:44;10.00;;;5.68;;
74593;SDS011;63097;51.872;4.460;2023-04-28T00:39:09;10.30;;;6.18;;
74593;SDS011;63097;51.872;4.460;2023-04-28T00:41:34;11.68;;;5.82;;
74593;SDS011;63097;51.872;4.460;2023-04-28T00:44:00;12.70;;;6.28;;
74593;SDS011;63097;51.872;4.460;2023-04-28T00:46:29;11.95;;;5.55;;
74593;SDS011;63097;51.872;4.460;2023-04-28T00:48:55;10.18;;;5.13;;
74593;SDS011;63097;51.872;4.460;2023-04-28T00:51:21;9.73;;;5.97;;
74593;SDS011;63097;51.872;4.460;2023-04-28T00:53:47;9.90;;;5.47;;
74593;SDS011;63097;51.872;4.460;2023-04-28T00:56:12;15.25;;;5.93;;
74593;SDS011;63097;51.872;4.460;2023-04-28T00:58:38;14.60;;;6.43;;
74593;SDS011;63097;51.872;4.460;2023-04-28T01:01:04;13.90;;;5.40;;
74593;SDS011;63097;51.872;4.460;2023-04-28T01:03:31;10.68;;;5.15;;
74593;SDS011;63097;51.872;4.460;2023-04-28T01:05:58;12.23;;;5.72;;
74593;SDS011;63097;51.872;4.460;2023-04-28T01:08:29;11.35;;;5.90;;
74593;SDS011;63097;51.872;4.460;2023-04-28T01:10:55;15.02;;;5.65;;
74593;SDS011;63097;51.872;4.460;2023-04-28T01:13:20;11.70;;;5.40;;
74593;SDS011;63097;51.872;4.460;2023-04-28T01:15:45;12.32;;;6.03;;
74593;SDS011;63097;51.872;4.460;2023-04-28T01:18:11;11.73;;;5.22;;
74593;SDS011;63097;51.872;4.460;2023-04-28T01:20:36;14.93;;;5.93;;
74593;SDS011;63097;51.872;4.460;2023-04-28T01:23:01;9.88;;;6.00;;
74593;SDS011;63097;51.872;4.460;2023-04-28T01:25:27;12.55;;;6.13;;
74593;SDS011;63097;51.872;4.460;2023-04-28T01:27:52;9.27;;;5.40;;
74593;SDS011;63097;51.872;4.460;2023-04-28T01:30:17;10.77;;;6.18;;
74593;SDS011;63097;51.872;4.460;2023-04-28T01:32:42;13.25;;;5.63;;
74593;SDS011;63097;51.872;4.460;2023-04-28T01:35:08;9.10;;;5.80;;
74593;SDS011;63097;51.872;4.460;2023-04-28T01:37:33;9.52;;;6.00;;
74593;SDS011;63097;51.872;4.460;2023-04-28T01:39:58;9.55;;;4.88;;
74593;SDS011;63097;51.872;4.460;2023-04-28T01:42:24;10.98;;;5.57;;
74593;SDS011;63097;51.872;4.460;2023-04-28T01:44:49;11.10;;;5.95;;
74593;SDS011;63097;51.872;4.460;2023-04-28T01:47:14;11.45;;;5.55;;
74593;SDS011;63097;51.872;4.460;2023-04-28T01:49:40;10.60;;;5.70;;
74593;SDS011;63097;51.872;4.460;2023-04-28T01:52:05;9.43;;;5.63;;
74593;SDS011;63097;51.872;4.460;2023-04-28T01:54:30;12.65;;;5.80;;
74593;SDS011;63097;51.872;4.460;2023-04-28T01:56:56;13.73;;;6.35;;
74593;SDS011;63097;51.872;4.460;2023-04-28T01:59:21;9.32;;;5.85;;
74593;SDS011;63097;51.872;4.460;2023-04-28T02:01:46;11.18;;;6.20;;
74593;SDS011;63097;51.872;4.460;2023-04-28T02:04:12;13.05;;;6.05;;
74593;SDS011;63097;51.872;4.460;2023-04-28T02:06:37;11.98;;;5.60;;
74593;SDS011;63097;51.872;4.460;2023-04-28T02:09:03;10.65;;;5.85;;
74593;SDS011;63097;51.872;4.460;2023-04-28T02:11:28;10.43;;;6.03;;
74593;SDS011;63097;51.872;4.460;2023-04-28T02:13:53;11.43;;;5.18;;
74593;SDS011;63097;51.872;4.460;2023-04-28T02:16:19;9.75;;;6.03;;
74593;SDS011;63097;51.872;4.460;2023-04-28T02:18:44;8.52;;;5.65;;
74593;SDS011;63097;51.872;4.460;2023-04-28T02:21:10;11.30;;;5.97;;
74593;SDS011;63097;51.872;4.460;2023-04-28T02:23:36;12.40;;;5.78;;
74593;SDS011;63097;51.872;4.460;2023-04-28T02:26:02;11.23;;;5.35;;
74593;SDS011;63097;51.872;4.460;2023-04-28T02:28:27;11.35;;;6.22;;
74593;SDS011;63097;51.872;4.460;2023-04-28T02:31:01;11.50;;;6.20;;
74593;SDS011;63097;51.872;4.460;2023-04-28T02:35:59;12.00;;;6.03;;
74593;SDS011;63097;51.872;4.460;2023-04-28T02:38:26;11.65;;;5.72;;
74593;SDS011;63097;51.872;4.460;2023-04-28T02:41:01;12.70;;;6.28;;
74593;SDS011;63097;51.872;4.460;2023-04-28T02:43:27;12.38;;;5.80;;
74593;SDS011;63097;51.872;4.460;2023-04-28T02:45:53;11.43;;;5.90;;
74593;SDS011;63097;51.872;4.460;2023-04-28T02:48:18;12.30;;;6.38;;
74593;SDS011;63097;51.872;4.460;2023-04-28T02:50:44;13.90;;;5.95;;
74593;SDS011;63097;51.872;4.460;2023-04-28T02:53:09;10.48;;;6.15;;
74593;SDS011;63097;51.872;4.460;2023-04-28T02:55:34;11.00;;;6.18;;
74593;SDS011;63097;51.872;4.460;2023-04-28T02:58:00;11.10;;;6.43;;
74593;SDS011;63097;51.872;4.460;2023-04-28T03:00:25;11.88;;;6.72;;
74593;SDS011;63097;51.872;4.460;2023-04-28T03:02:50;12.07;;;6.57;;
74593;SDS011;63097;51.872;4.460;2023-04-28T03:05:16;13.57;;;6.55;;
74593;SDS011;63097;51.872;4.460;2023-04-28T03:07:41;11.63;;;6.15;;
74593;SDS011;63097;51.872;4.460;2023-04-28T03:10:06;8.07;;;6.43;;
74593;SDS011;63097;51.872;4.460;2023-04-28T03:12:32;12.20;;;6.47;;
74593;SDS011;63097;51.872;4.460;2023-04-28T03:14:57;13.70;;;6.50;;
74593;SDS011;63097;51.872;4.460;2023-04-28T03:17:23;12.90;;;6.28;;
74593;SDS011;63097;51.872;4.460;2023-04-28T03:19:48;13.52;;;6.40;;
74593;SDS011;63097;51.872;4.460;2023-04-28T03:22:13;16.15;;;6.70;;
74593;SDS011;63097;51.872;4.460;2023-04-28T03:24:39;10.00;;;6.47;;
74593;SDS011;63097;51.872;4.460;2023-04-28T03:27:04;13.13;;;7.30;;
74593;SDS011;63097;51.872;4.460;2023-04-28T03:29:29;15.18;;;6.20;;
74593;SDS011;63097;51.872;4.460;2023-04-28T03:31:55;12.25;;;6.70;;
74593;SDS011;63097;51.872;4.460;2023-04-28T03:34:20;11.02;;;6.70;;
74593;SDS011;63097;51.872;4.460;2023-04-28T03:36:45;9.57;;;6.38;;
74593;SDS011;63097;51.872;4.460;2023-04-28T03:39:11;11.40;;;6.20;;
74593;SDS011;63097;51.872;4.460;2023-04-28T03:41:36;17.70;;;6.40;;
74593;SDS011;63097;51.872;4.460;2023-04-28T03:44:01;14.43;;;6.88;;
74593;SDS011;63097;51.872;4.460;2023-04-28T03:46:27;11.50;;;6.80;;
74593;SDS011;63097;51.872;4.460;2023-04-28T03:48:52;11.45;;;6.72;;
74593;SDS011;63097;51.872;4.460;2023-04-28T03:51:17;11.75;;;6.18;;
74593;SDS011;63097;51.872;4.460;2023-04-28T03:53:42;10.90;;;6.32;;
74593;SDS011;63097;51.872;4.460;2023-04-28T03:56:08;11.90;;;7.05;;
74593;SDS011;63097;51.872;4.460;2023-04-28T03:58:33;14.38;;;6.45;;
74593;SDS011;63097;51.872;4.460;2023-04-28T04:00:58;13.23;;;6.60;;
74593;SDS011;63097;51.872;4.460;2023-04-28T04:03:24;10.07;;;6.05;;
74593;SDS011;63097;51.872;4.460;2023-04-28T04:05:49;12.90;;;7.00;;
74593;SDS011;63097;51.872;4.460;2023-04-28T04:08:14;12.75;;;6.53;;
74593;SDS011;63097;51.872;4.460;2023-04-28T04:10:40;18.23;;;7.45;;
74593;SDS011;63097;51.872;4.460;2023-04-28T04:13:05;11.40;;;6.78;;
74593;SDS011;63097;51.872;4.460;2023-04-28T04:15:30;15.32;;;7.72;;
74593;SDS011;63097;51.872;4.460;2023-04-28T04:17:56;13.13;;;7.18;;
74593;SDS011;63097;51.872;4.460;2023-04-28T04:20:21;15.93;;;7.25;;
74593;SDS011;63097;51.872;4.460;2023-04-28T04:22:46;14.00;;;6.82;;
74593;SDS011;63097;51.872;4.460;2023-04-28T04:25:11;11.90;;;7.18;;
74593;SDS011;63097;51.872;4.460;2023-04-28T04:27:37;12.90;;;7.28;;
74593;SDS011;63097;51.872;4.460;2023-04-28T04:30:02;18.20;;;8.65;;
74593;SDS011;63097;51.872;4.460;2023-04-28T04:32:28;14.30;;;7.60;;
74593;SDS011;63097;51.872;4.460;2023-04-28T04:34:53;12.38;;;8.02;;
74593;SDS011;63097;51.872;4.460;2023-04-28T04:37:18;16.85;;;7.78;;
74593;SDS011;63097;51.872;4.460;2023-04-28T04:39:44;16.85;;;8.35;;
74593;SDS011;63097;51.872;4.460;2023-04-28T04:42:09;14.45;;;8.50;;
74593;SDS011;63097;51.872;4.460;2023-04-28T04:44:34;16.13;;;8.57;;
74593;SDS011;63097;51.872;4.460;2023-04-28T04:47:00;14.65;;;8.70;;
74593;SDS011;63097;51.872;4.460;2023-04-28T04:49:25;14.60;;;8.93;;
74593;SDS011;63097;51.872;4.460;2023-04-28T04:51:50;16.95;;;8.93;;
74593;SDS011;63097;51.872;4.460;2023-04-28T04:54:16;17.15;;;9.20;;
74593;SDS011;63097;51.872;4.460;2023-04-28T04:56:41;17.38;;;9.50;;
74593;SDS011;63097;51.872;4.460;2023-04-28T04:59:07;18.85;;;9.15;;
74593;SDS011;63097;51.872;4.460;2023-04-28T05:01:32;18.65;;;10.20;;
74593;SDS011;63097;51.872;4.460;2023-04-28T05:03:57;19.92;;;10.43;;
74593;SDS011;63097;51.872;4.460;2023-04-28T05:06:23;18.48;;;10.05;;
74593;SDS011;63097;51.872;4.460;2023-04-28T05:08:48;15.02;;;9.75;;
74593;SDS011;63097;51.872;4.460;2023-04-28T05:11:13;19.05;;;10.50;;
74593;SDS011;63097;51.872;4.460;2023-04-28T05:13:39;19.15;;;10.60;;
74593;SDS011;63097;51.872;4.460;2023-04-28T05:16:04;18.73;;;10.40;;
74593;SDS011;63097;51.872;4.460;2023-04-28T05:18:30;21.00;;;10.68;;
74593;SDS011;63097;51.872;4.460;2023-04-28T05:20:55;14.95;;;9.75;;
74593;SDS011;63097;51.872;4.460;2023-04-28T05:23:20;20.23;;;11.23;;
74593;SDS011;63097;51.872;4.460;2023-04-28T05:25:46;20.65;;;10.60;;
74593;SDS011;63097;51.872;4.460;2023-04-28T05:28:11;20.67;;;11.23;;
74593;SDS011;63097;51.872;4.460;2023-04-28T05:30:36;21.33;;;11.02;;
74593;SDS011;63097;51.872;4.460;2023-04-28T05:33:02;15.02;;;10.55;;
74593;SDS011;63097;51.872;4.460;2023-04-28T05:35:27;23.52;;;10.98;;
74593;SDS011;63097;51.872;4.460;2023-04-28T05:37:52;19.50;;;11.02;;
74593;SDS011;63097;51.872;4.460;2023-04-28T05:40:18;24.92;;;10.93;;
74593;SDS011;63097;51.872;4.460;2023-04-28T05:42:43;16.83;;;10.65;;
74593;SDS011;63097;51.872;4.460;2023-04-28T05:45:08;27.25;;;11.50;;
74593;SDS011;63097;51.872;4.460;2023-04-28T05:47:34;21.80;;;11.18;;
74593;SDS011;63097;51.872;4.460;2023-04-28T05:50:00;21.58;;;10.93;;
74593;SDS011;63097;51.872;4.460;2023-04-28T05:52:25;19.63;;;12.00;;
74593;SDS011;63097;51.872;4.460;2023-04-28T05:54:50;22.00;;;12.00;;
74593;SDS011;63097;51.872;4.460;2023-04-28T05:57:16;23.13;;;11.68;;
74593;SDS011;63097;51.872;4.460;2023-04-28T05:59:41;23.30;;;11.68;;
74593;SDS011;63097;51.872;4.460;2023-04-28T06:02:06;20.25;;;12.02;;
74593;SDS011;63097;51.872;4.460;2023-04-28T06:04:32;22.73;;;12.45;;
74593;SDS011;63097;51.872;4.460;2023-04-28T06:06:57;25.55;;;13.40;;
74593;SDS011;63097;51.872;4.460;2023-04-28T06:09:22;23.63;;;12.65;;
74593;SDS011;63097;51.872;4.460;2023-04-28T06:11:48;22.58;;;12.75;;
74593;SDS011;63097;51.872;4.460;2023-04-28T06:14:13;26.55;;;12.70;;
74593;SDS011;63097;51.872;4.460;2023-04-28T06:16:38;26.27;;;13.30;;
74593;SDS011;63097;51.872;4.460;2023-04-28T06:19:03;22.35;;;11.85;;
74593;SDS011;63097;51.872;4.460;2023-04-28T06:21:29;29.23;;;14.82;;
74593;SDS011;63097;51.872;4.460;2023-04-28T06:23:54;22.50;;;13.25;;
74593;SDS011;63097;51.872;4.460;2023-04-28T06:26:19;23.90;;;13.13;;
74593;SDS011;63097;51.872;4.460;2023-04-28T06:28:45;29.08;;;13.85;;
74593;SDS011;63097;51.872;4.460;2023-04-28T06:31:10;28.80;;;13.80;;
74593;SDS011;63097;51.872;4.460;2023-04-28T06:33:36;26.10;;;13.85;;
74593;SDS011;63097;51.872;4.460;2023-04-28T06:36:01;26.83;;;13.63;;
74593;SDS011;63097;51.872;4.460;2023-04-28T06:38:27;34.83;;;14.60;;
74593;SDS011;63097;51.872;4.460;2023-04-28T06:40:52;26.77;;;13.40;;
74593;SDS011;63097;51.872;4.460;2023-04-28T06:43:18;24.92;;;14.80;;
74593;SDS011;63097;51.872;4.460;2023-04-28T06:45:44;25.90;;;14.70;;
74593;SDS011;63097;51.872;4.460;2023-04-28T06:48:09;25.67;;;14.57;;
74593;SDS011;63097;51.872;4.460;2023-04-28T06:50:35;26.65;;;14.90;;
74593;SDS011;63097;51.872;4.460;2023-04-28T06:53:01;28.52;;;14.90;;
74593;SDS011;63097;51.872;4.460;2023-04-28T06:55:26;27.85;;;15.40;;
74593;SDS011;63097;51.872;4.460;2023-04-28T06:57:52;29.52;;;15.40;;
74593;SDS011;63097;51.872;4.460;2023-04-28T07:00:17;30.65;;;15.18;;
74593;SDS011;63097;51.872;4.460;2023-04-28T07:02:42;31.63;;;13.32;;
74593;SDS011;63097;51.872;4.460;2023-04-28T07:05:08;27.17;;;15.45;;
74593;SDS011;63097;51.872;4.460;2023-04-28T07:07:33;32.10;;;15.25;;
74593;SDS011;63097;51.872;4.460;2023-04-28T07:09:59;29.05;;;15.00;;
74593;SDS011;63097;51.872;4.460;2023-04-28T07:12:24;31.25;;;14.93;;
74593;SDS011;63097;51.872;4.460;2023-04-28T07:14:49;38.33;;;15.63;;
74593;SDS011;63097;51.872;4.460;2023-04-28T07:17:15;27.30;;;15.57;;
74593;SDS011;63097;51.872;4.460;2023-04-28T07:19:40;30.88;;;16.92;;
74593;SDS011;63097;51.872;4.460;2023-04-28T07:22:05;32.67;;;16.13;;
74593;SDS011;63097;51.872;4.460;2023-04-28T07:24:31;29.92;;;15.10;;
74593;SDS011;63097;51.872;4.460;2023-04-28T07:26:56;33.63;;;16.98;;
74593;SDS011;63097;51.872;4.460;2023-04-28T07:29:22;30.00;;;16.63;;
74593;SDS011;63097;51.872;4.460;2023-04-28T07:31:48;33.25;;;16.27;;
74593;SDS011;63097;51.872;4.460;2023-04-28T07:34:13;25.45;;;15.02;;
74593;SDS011;63097;51.872;4.460;2023-04-28T07:36:39;28.73;;;16.35;;
74593;SDS011;63097;51.872;4.460;2023-04-28T07:39:04;24.45;;;14.98;;
74593;SDS011;63097;51.872;4.460;2023-04-28T07:41:30;25.83;;;15.00;;
74593;SDS011;63097;51.872;4.460;2023-04-28T07:44:00;26.55;;;15.68;;
74593;SDS011;63097;51.872;4.460;2023-04-28T07:46:26;27.25;;;15.38;;
74593;SDS011;63097;51.872;4.460;2023-04-28T07:48:51;32.95;;;15.10;;
74593;SDS011;63097;51.872;4.460;2023-04-28T07:51:16;28.13;;;15.88;;
74593;SDS011;63097;51.872;4.460;2023-04-28T07:53:42;26.95;;;15.88;;
74593;SDS011;63097;51.872;4.460;2023-04-28T07:56:07;30.70;;;15.15;;
74593;SDS011;63097;51.872;4.460;2023-04-28T07:58:32;25.35;;;15.98;;
74593;SDS011;63097;51.872;4.460;2023-04-28T08:00:58;26.38;;;14.73;;
74593;SDS011;63097;51.872;4.460;2023-04-28T08:03:23;25.55;;;14.10;;
74593;SDS011;63097;51.872;4.460;2023-04-28T08:05:48;27.38;;;16.25;;
74593;SDS011;63097;51.872;4.460;2023-04-28T08:08:13;26.73;;;16.35;;
74593;SDS011;63097;51.872;4.460;2023-04-28T08:10:39;28.23;;;16.25;;
74593;SDS011;63097;51.872;4.460;2023-04-28T08:13:05;28.55;;;15.60;;
74593;SDS011;63097;51.872;4.460;2023-04-28T08:15:30;27.33;;;15.60;;
74593;SDS011;63097;51.872;4.460;2023-04-28T08:17:55;31.23;;;17.40;;
74593;SDS011;63097;51.872;4.460;2023-04-28T08:20:21;33.60;;;18.05;;
74593;SDS011;63097;51.872;4.460;2023-04-28T08:22:46;28.38;;;16.88;;
74593;SDS011;63097;51.872;4.460;2023-04-28T08:25:11;32.78;;;17.23;;
74593;SDS011;63097;51.872;4.460;2023-04-28T08:27:37;28.15;;;17.13;;
74593;SDS011;63097;51.872;4.460;2023-04-28T08:30:02;29.38;;;16.63;;
74593;SDS011;63097;51.872;4.460;2023-04-28T08:32:28;26.48;;;15.70;;
74593;SDS011;63097;51.872;4.460;2023-04-28T08:34:53;24.58;;;14.25;;
74593;SDS011;63097;51.872;4.460;2023-04-28T08:37:18;27.83;;;14.75;;
74593;SDS011;63097;51.872;4.460;2023-04-28T08:39:44;21.70;;;14.60;;
74593;SDS011;63097;51.872;4.460;2023-04-28T08:42:09;16.48;;;9.32;;
74593;SDS011;63097;51.872;4.460;2023-04-28T08:44:38;21.73;;;13.20;;
74593;SDS011;63097;51.872;4.460;2023-04-28T08:47:13;23.25;;;14.75;;
74593;SDS011;63097;51.872;4.460;2023-04-28T08:49:39;28.73;;;16.42;;
74593;SDS011;63097;51.872;4.460;2023-04-28T08:52:09;21.92;;;14.27;;
74593;SDS011;63097;51.872;4.460;2023-04-28T08:54:36;21.98;;;13.80;;
74593;SDS011;63097;51.872;4.460;2023-04-28T08:57:03;25.65;;;14.88;;
74593;SDS011;63097;51.872;4.460;2023-04-28T08:59:29;23.13;;;14.70;;
74593;SDS011;63097;51.872;4.460;2023-04-28T09:01:55;22.33;;;14.70;;
74593;SDS011;63097;51.872;4.460;2023-04-28T09:04:20;19.70;;;12.82;;
74593;SDS011;63097;51.872;4.460;2023-04-28T09:06:45;19.98;;;12.20;;
74593;SDS011;63097;51.872;4.460;2023-04-28T09:09:24;19.63;;;13.38;;
74593;SDS011;63097;51.872;4.460;2023-04-28T09:11:51;18.95;;;12.57;;
74593;SDS011;63097;51.872;4.460;2023-04-28T09:14:16;14.75;;;8.77;;
74593;SDS011;63097;51.872;4.460;2023-04-28T09:16:41;15.65;;;10.57;;
74593;SDS011;63097;51.872;4.460;2023-04-28T09:19:07;12.75;;;8.77;;
74593;SDS011;63097;51.872;4.460;2023-04-28T09:21:33;13.57;;;8.05;;
74593;SDS011;63097;51.872;4.460;2023-04-28T09:24:27;11.88;;;6.45;;
74593;SDS011;63097;51.872;4.460;2023-04-28T09:26:56;16.02;;;4.97;;
74593;SDS011;63097;51.872;4.460;2023-04-28T09:29:22;13.75;;;5.78;;
74593;SDS011;63097;51.872;4.460;2023-04-28T09:31:47;9.95;;;4.65;;
74593;SDS011;63097;51.872;4.460;2023-04-28T09:34:13;9.63;;;2.20;;
74593;SDS011;63097;51.872;4.460;2023-04-28T09:36:38;4.93;;;2.13;;
74593;SDS011;63097;51.872;4.460;2023-04-28T09:39:04;4.38;;;1.75;;
74593;SDS011;63097;51.872;4.460;2023-04-28T09:41:39;4.43;;;1.90;;
74593;SDS011;63097;51.872;4.460;2023-04-28T09:44:11;5.50;;;2.25;;
74593;SDS011;63097;51.872;4.460;2023-04-28T09:46:38;4.75;;;1.60;;
74593;SDS011;63097;51.872;4.460;2023-04-28T09:49:03;10.95;;;1.70;;
74593;SDS011;63097;51.872;4.460;2023-04-28T09:51:29;3.30;;;1.58;;
74593;SDS011;63097;51.872;4.460;2023-04-28T09:53:54;2.22;;;1.27;;
74593;SDS011;63097;51.872;4.460;2023-04-28T09:56:26;3.88;;;2.00;;
74593;SDS011;63097;51.872;4.460;2023-04-28T09:58:52;3.78;;;2.47;;
74593;SDS011;63097;51.872;4.460;2023-04-28T10:01:18;3.15;;;1.92;;
74593;SDS011;63097;51.872;4.460;2023-04-28T10:03:44;1.60;;;1.40;;
74593;SDS011;63097;51.872;4.460;2023-04-28T10:06:09;1.92;;;1.33;;
74593;SDS011;63097;51.872;4.460;2023-04-28T10:08:35;3.33;;;1.33;;
74593;SDS011;63097;51.872;4.460;2023-04-28T10:11:00;2.13;;;1.50;;
74593;SDS011;63097;51.872;4.460;2023-04-28T10:13:26;3.72;;;1.45;;
74593;SDS011;63097;51.872;4.460;2023-04-28T10:15:51;2.28;;;0.93;;
74593;SDS011;63097;51.872;4.460;2023-04-28T10:18:16;4.70;;;1.20;;
74593;SDS011;63097;51.872;4.460;2023-04-28T10:20:46;2.38;;;1.00;;
74593;SDS011;63097;51.872;4.460;2023-04-28T10:26:12;2.47;;;1.10;;
74593;SDS011;63097;51.872;4.460;2023-04-28T10:28:48;3.70;;;0.95;;
74593;SDS011;63097;51.872;4.460;2023-04-28T10:31:15;0.63;;;0.63;;
74593;SDS011;63097;51.872;4.460;2023-04-28T10:33:44;3.45;;;1.08;;
74593;SDS011;63097;51.872;4.460;2023-04-28T10:36:10;1.67;;;0.70;;
74593;SDS011;63097;51.872;4.460;2023-04-28T10:38:36;1.23;;;0.60;;
74593;SDS011;63097;51.872;4.460;2023-04-28T10:41:33;1.45;;;0.70;;
74593;SDS011;63097;51.872;4.460;2023-04-28T10:43:59;3.63;;;0.52;;
74593;SDS011;63097;51.872;4.460;2023-04-28T10:46:24;1.15;;;0.60;;
74593;SDS011;63097;51.872;4.460;2023-04-28T10:56:15;1.83;;;0.60;;
74593;SDS011;63097;51.872;4.460;2023-04-28T10:58:48;1.88;;;0.60;;
74593;SDS011;63097;51.872;4.460;2023-04-28T11:06:20;0.82;;;0.70;;
74593;SDS011;63097;51.872;4.460;2023-04-28T11:08:49;0.90;;;0.80;;
74593;SDS011;63097;51.872;4.460;2023-04-28T11:11:16;0.93;;;0.60;;
74593;SDS011;63097;51.872;4.460;2023-04-28T11:13:42;1.55;;;0.80;;
74593;SDS011;63097;51.872;4.460;2023-04-28T11:16:07;0.70;;;0.47;;
74593;SDS011;63097;51.872;4.460;2023-04-28T11:19:15;1.70;;;0.63;;
74593;SDS011;63097;51.872;4.460;2023-04-28T11:21:23;0.90;;;0.73;;
74593;SDS011;63097;51.872;4.460;2023-04-28T11:23:50;3.00;;;0.70;;
74593;SDS011;63097;51.872;4.460;2023-04-28T11:26:15;1.10;;;0.70;;
74593;SDS011;63097;51.872;4.460;2023-04-28T11:28:46;0.68;;;0.60;;
74593;SDS011;63097;51.872;4.460;2023-04-28T11:31:19;2.63;;;0.60;;
74593;SDS011;63097;51.872;4.460;2023-04-28T11:33:47;2.40;;;0.70;;
74593;SDS011;63097;51.872;4.460;2023-04-28T11:36:34;0.68;;;0.60;;
74593;SDS011;63097;51.872;4.460;2023-04-28T11:39:01;2.28;;;1.55;;
74593;SDS011;63097;51.872;4.460;2023-04-28T11:41:31;0.77;;;0.70;;
74593;SDS011;63097;51.872;4.460;2023-04-28T11:44:08;0.88;;;0.75;;
74593;SDS011;63097;51.872;4.460;2023-04-28T11:46:34;1.20;;;0.63;;
74593;SDS011;63097;51.872;4.460;2023-04-28T11:49:03;1.20;;;1.00;;
74593;SDS011;63097;51.872;4.460;2023-04-28T11:51:36;1.35;;;0.90;;
74593;SDS011;63097;51.872;4.460;2023-04-28T11:54:03;1.48;;;1.10;;
74593;SDS011;63097;51.872;4.460;2023-04-28T11:56:30;1.58;;;0.90;;
74593;SDS011;63097;51.872;4.460;2023-04-28T11:59:01;1.95;;;1.05;;
74593;SDS011;63097;51.872;4.460;2023-04-28T12:01:35;1.67;;;0.80;;
74593;SDS011;63097;51.872;4.460;2023-04-28T12:04:37;1.88;;;0.80;;
74593;SDS011;63097;51.872;4.460;2023-04-28T12:09:33;2.28;;;1.10;;
74593;SDS011;63097;51.872;4.460;2023-04-28T12:12:03;3.67;;;1.30;;
74593;SDS011;63097;51.872;4.460;2023-04-28T12:14:29;4.88;;;1.70;;
74593;SDS011;63097;51.872;4.460;2023-04-28T12:16:56;2.63;;;1.38;;
74593;SDS011;63097;51.872;4.460;2023-04-28T12:19:21;1.65;;;1.30;;
74593;SDS011;63097;51.872;4.460;2023-04-28T12:21:59;2.35;;;1.65;;
74593;SDS011;63097;51.872;4.460;2023-04-28T12:24:29;3.75;;;1.50;;
74593;SDS011;63097;51.872;4.460;2023-04-28T12:26:54;4.78;;;1.75;;
74593;SDS011;63097;51.872;4.460;2023-04-28T12:29:38;3.15;;;1.38;;
74593;SDS011;63097;51.872;4.460;2023-04-28T12:32:05;5.68;;;1.63;;
74593;SDS011;63097;51.872;4.460;2023-04-28T12:34:31;3.72;;;1.42;;
74593;SDS011;63097;51.872;4.460;2023-04-28T12:36:57;2.63;;;1.50;;
74593;SDS011;63097;51.872;4.460;2023-04-28T12:39:22;5.97;;;1.30;;
74593;SDS011;63097;51.872;4.460;2023-04-28T12:41:47;2.63;;;1.15;;
74593;SDS011;63097;51.872;4.460;2023-04-28T12:44:13;2.92;;;1.38;;
74593;SDS011;63097;51.872;4.460;2023-04-28T12:46:38;5.05;;;1.73;;
74593;SDS011;63097;51.872;4.460;2023-04-28T12:49:03;7.75;;;3.03;;
74593;SDS011;63097;51.872;4.460;2023-04-28T12:51:28;4.50;;;2.00;;
74593;SDS011;63097;51.872;4.460;2023-04-28T12:53:54;2.63;;;1.90;;
74593;SDS011;63097;51.872;4.460;2023-04-28T12:56:19;4.03;;;2.10;;
74593;SDS011;63097;51.872;4.460;2023-04-28T12:58:44;4.15;;;2.80;;
74593;SDS011;63097;51.872;4.460;2023-04-28T13:01:10;6.45;;;2.72;;
74593;SDS011;63097;51.872;4.460;2023-04-28T13:03:35;5.97;;;2.95;;
74593;SDS011;63097;51.872;4.460;2023-04-28T13:06:00;4.70;;;3.05;;
74593;SDS011;63097;51.872;4.460;2023-04-28T13:08:26;4.47;;;2.78;;
74593;SDS011;63097;51.872;4.460;2023-04-28T13:10:51;4.88;;;3.55;;
74593;SDS011;63097;51.872;4.460;2023-04-28T13:13:16;8.73;;;3.50;;
74593;SDS011;63097;51.872;4.460;2023-04-28T13:15:42;7.28;;;3.95;;
74593;SDS011;63097;51.872;4.460;2023-04-28T13:18:07;8.02;;;3.50;;
74593;SDS011;63097;51.872;4.460;2023-04-28T13:20:32;11.35;;;4.43;;
74593;SDS011;63097;51.872;4.460;2023-04-28T13:22:57;7.15;;;4.13;;
74593;SDS011;63097;51.872;4.460;2023-04-28T13:25:23;8.35;;;4.05;;
74593;SDS011;63097;51.872;4.460;2023-04-28T13:27:48;8.23;;;4.10;;
74593;SDS011;63097;51.872;4.460;2023-04-28T13:30:13;10.77;;;4.53;;
74593;SDS011;63097;51.872;4.460;2023-04-28T13:32:39;12.40;;;5.05;;
74593;SDS011;63097;51.872;4.460;2023-04-28T13:35:04;9.25;;;5.55;;
74593;SDS011;63097;51.872;4.460;2023-04-28T13:37:30;11.88;;;5.75;;
74593;SDS011;63097;51.872;4.460;2023-04-28T13:39:55;14.50;;;6.28;;
74593;SDS011;63097;51.872;4.460;2023-04-28T13:42:21;16.38;;;5.85;;
74593;SDS011;63097;51.872;4.460;2023-04-28T13:44:46;21.40;;;6.20;;
74593;SDS011;63097;51.872;4.460;2023-04-28T13:47:11;12.93;;;6.63;;
74593;SDS011;63097;51.872;4.460;2023-04-28T13:49:37;15.20;;;6.22;;
74593;SDS011;63097;51.872;4.460;2023-04-28T13:52:02;18.63;;;6.53;;
74593;SDS011;63097;51.872;4.460;2023-04-28T13:54:27;18.52;;;6.60;;
74593;SDS011;63097;51.872;4.460;2023-04-28T13:56:52;15.50;;;6.10;;
74593;SDS011;63097;51.872;4.460;2023-04-28T13:59:18;11.93;;;5.05;;
74593;SDS011;63097;51.872;4.460;2023-04-28T14:01:43;13.63;;;6.13;;
74593;SDS011;63097;51.872;4.460;2023-04-28T14:04:08;15.88;;;6.13;;
74593;SDS011;63097;51.872;4.460;2023-04-28T14:06:34;14.20;;;5.93;;
74593;SDS011;63097;51.872;4.460;2023-04-28T14:08:59;12.10;;;5.22;;
74593;SDS011;63097;51.872;4.460;2023-04-28T14:11:24;23.02;;;4.10;;
74593;SDS011;63097;51.872;4.460;2023-04-28T14:13:50;8.32;;;3.38;;
74593;SDS011;63097;51.872;4.460;2023-04-28T14:16:15;10.77;;;2.30;;
74593;SDS011;63097;51.872;4.460;2023-04-28T14:18:40;15.05;;;4.18;;
74593;SDS011;63097;51.872;4.460;2023-04-28T14:21:06;9.30;;;3.47;;
74593;SDS011;63097;51.872;4.460;2023-04-28T14:23:31;9.68;;;3.67;;
74593;SDS011;63097;51.872;4.460;2023-04-28T14:25:56;11.27;;;3.20;;
74593;SDS011;63097;51.872;4.460;2023-04-28T14:28:22;6.43;;;3.15;;
74593;SDS011;63097;51.872;4.460;2023-04-28T14:30:47;8.38;;;3.45;;
74593;SDS011;63097;51.872;4.460;2023-04-28T14:33:12;8.40;;;3.05;;
74593;SDS011;63097;51.872;4.460;2023-04-28T14:35:38;12.18;;;3.13;;
74593;SDS011;63097;51.872;4.460;2023-04-28T14:38:03;5.95;;;3.17;;
74593;SDS011;63097;51.872;4.460;2023-04-28T14:40:29;14.75;;;3.40;;
74593;SDS011;63097;51.872;4.460;2023-04-28T14:42:54;9.10;;;3.00;;
74593;SDS011;63097;51.872;4.460;2023-04-28T14:45:19;10.82;;;2.70;;
74593;SDS011;63097;51.872;4.460;2023-04-28T14:47:45;6.03;;;2.47;;
74593;SDS011;63097;51.872;4.460;2023-04-28T14:50:10;8.75;;;2.92;;